createdAt,value
2022-12-05T00:01:36.240Z,27.42
2022-12-05T00:04:07.301Z,25.58
2022-12-05T00:06:37.327Z,23.17
2022-12-05T00:09:06.492Z,26.70
2022-12-05T00:11:39.066Z,26.38
2022-12-05T00:14:08.870Z,25.25
2022-12-05T00:16:39.005Z,23.45
2022-12-05T00:19:08.664Z,25.73
2022-12-05T00:21:37.677Z,25.48
2022-12-05T00:24:08.016Z,23.15
2022-12-05T00:26:36.374Z,24.75
2022-12-05T00:29:04.768Z,24.05
2022-12-05T00:31:32.827Z,23.67
2022-12-05T00:34:02.136Z,24.35
2022-12-05T00:36:32.905Z,25.58
2022-12-05T00:39:04.277Z,24.20
2022-12-05T00:41:32.516Z,26.75
2022-12-05T00:44:02.034Z,23.85
2022-12-05T00:46:32.120Z,24.10
2022-12-05T00:49:01.649Z,21.35
2022-12-05T00:51:36.395Z,26.30
2022-12-05T00:54:08.343Z,21.17
2022-12-05T00:56:36.538Z,22.20
2022-12-05T00:59:05.607Z,24.42
2022-12-05T01:01:40.367Z,23.25
2022-12-05T01:04:12.892Z,21.27
2022-12-05T01:06:41.616Z,21.67
2022-12-05T01:09:12.986Z,22.63
2022-12-05T01:11:41.909Z,21.90
2022-12-05T01:14:11.395Z,21.42
2022-12-05T01:16:41.687Z,23.20
2022-12-05T01:19:14.774Z,20.10
2022-12-05T01:21:43.434Z,23.38
2022-12-05T01:24:12.363Z,23.65
2022-12-05T01:26:42.351Z,23.48
2022-12-05T01:29:12.186Z,24.10
2022-12-05T01:31:40.949Z,19.73
2022-12-05T01:34:12.800Z,20.73
2022-12-05T01:36:41.517Z,17.95
2022-12-05T01:39:11.048Z,21.08
2022-12-05T01:41:47.209Z,18.17
2022-12-05T01:44:15.271Z,17.83
2022-12-05T01:46:49.257Z,17.65
2022-12-05T01:49:34.134Z,17.85
2022-12-05T01:52:07.318Z,16.90
2022-12-05T01:54:37.417Z,14.20
2022-12-05T01:57:11.918Z,15.90
2022-12-05T01:59:45.532Z,12.63
2022-12-05T02:02:13.963Z,14.48
2022-12-05T02:05:09.369Z,14.15
2022-12-05T02:07:41.034Z,15.25
2022-12-05T02:10:09.927Z,16.17
2022-12-05T02:12:39.203Z,15.13
2022-12-05T02:15:22.651Z,16.35
2022-12-05T02:18:14.788Z,15.80
2022-12-05T02:20:54.810Z,15.88
2022-12-05T02:23:46.339Z,15.98
2022-12-05T02:26:53.164Z,15.48
2022-12-05T02:29:58.289Z,17.42
2022-12-05T02:32:58.850Z,15.35
2022-12-05T02:35:38.014Z,18.08
2022-12-05T02:38:08.916Z,17.77
2022-12-05T02:40:44.108Z,16.40
2022-12-05T02:43:15.315Z,16.38
2022-12-05T02:45:46.964Z,17.27
2022-12-05T02:48:18.296Z,16.17
2022-12-05T02:50:49.463Z,16.52
2022-12-05T02:53:19.976Z,17.08
2022-12-05T02:55:48.970Z,18.15
2022-12-05T02:58:23.159Z,17.40
2022-12-05T03:00:55.860Z,16.35
2022-12-05T03:03:25.010Z,17.65
2022-12-05T03:06:09.717Z,16.92
2022-12-05T03:08:45.134Z,19.92
2022-12-05T03:11:13.951Z,17.30
2022-12-05T03:13:55.294Z,18.80
2022-12-05T03:16:48.210Z,17.67
2022-12-05T03:19:21.794Z,17.67
2022-12-05T03:21:55.614Z,18.90
2022-12-05T03:24:23.654Z,16.08
2022-12-05T03:27:09.512Z,16.92
2022-12-05T03:29:51.244Z,16.92
2022-12-05T03:32:41.791Z,16.08
2022-12-05T03:35:14.568Z,18.25
2022-12-05T03:37:48.342Z,16.98
2022-12-05T03:40:40.692Z,16.77
2022-12-05T03:43:20.750Z,13.75
2022-12-05T03:46:00.842Z,16.38
2022-12-05T03:48:38.270Z,16.13
2022-12-05T03:51:10.721Z,17.67
2022-12-05T03:53:48.065Z,15.23
2022-12-05T03:56:24.705Z,17.17
2022-12-05T03:59:32.790Z,14.90
2022-12-05T04:02:08.003Z,15.13
2022-12-05T04:04:42.986Z,15.77
2022-12-05T04:07:14.280Z,15.10
2022-12-05T04:09:49.141Z,13.90
2022-12-05T04:12:22.933Z,15.27
2022-12-05T04:14:56.916Z,13.80
2022-12-05T04:17:40.844Z,16.30
2022-12-05T04:20:52.788Z,14.18
2022-12-05T04:23:21.200Z,17.90
2022-12-05T04:26:21.516Z,15.40
2022-12-05T04:28:58.325Z,16.58
2022-12-05T04:31:35.377Z,17.67
2022-12-05T04:34:10.315Z,17.10
2022-12-05T04:36:56.514Z,16.25
2022-12-05T04:39:31.533Z,19.85
2022-12-05T04:42:30.461Z,14.85
2022-12-05T04:45:05.176Z,15.95
2022-12-05T04:47:39.662Z,16.35
2022-12-05T04:50:10.920Z,15.63
2022-12-05T04:52:40.105Z,14.18
2022-12-05T04:55:10.248Z,16.02
2022-12-05T04:57:49.992Z,14.93
2022-12-05T05:00:18.332Z,13.45
2022-12-05T05:03:16.615Z,14.25
2022-12-05T05:05:49.650Z,12.65
2022-12-05T05:08:24.273Z,13.23
2022-12-05T05:11:15.475Z,14.35
2022-12-05T05:13:43.463Z,15.52
2022-12-05T05:16:29.132Z,13.68
2022-12-05T05:18:57.627Z,15.40
2022-12-05T05:21:30.114Z,15.77
2022-12-05T05:23:58.913Z,14.75
2022-12-05T05:26:28.050Z,15.10
2022-12-05T05:28:58.379Z,15.18
2022-12-05T05:31:27.101Z,15.68
2022-12-05T05:33:56.947Z,15.80
2022-12-05T05:36:27.346Z,15.20
2022-12-05T05:38:58.046Z,13.68
2022-12-05T05:41:28.666Z,13.57
2022-12-05T05:43:58.459Z,12.27
2022-12-05T05:46:29.968Z,13.50
2022-12-05T05:48:58.679Z,15.00
2022-12-05T05:51:31.741Z,11.70
2022-12-05T05:54:00.260Z,10.25
2022-12-05T05:56:29.559Z,12.25
2022-12-05T05:59:05.198Z,13.75
2022-12-05T06:01:33.081Z,13.02
2022-12-05T06:04:01.282Z,12.40
2022-12-05T06:06:29.245Z,12.90
2022-12-05T06:08:57.255Z,11.52
2022-12-05T06:11:27.309Z,14.38
2022-12-05T06:13:56.625Z,10.95
2022-12-05T06:16:25.649Z,8.55
2022-12-05T06:18:54.242Z,11.00
2022-12-05T06:21:23.206Z,11.15
2022-12-05T06:23:51.327Z,8.30
2022-12-05T06:26:21.017Z,10.85
2022-12-05T06:28:49.343Z,10.20
2022-12-05T06:31:20.424Z,9.27
2022-12-05T06:33:49.244Z,11.45
2022-12-05T06:36:20.560Z,11.23
2022-12-05T06:38:48.755Z,11.55
2022-12-05T06:41:19.516Z,10.60
2022-12-05T06:43:48.172Z,11.88
2022-12-05T06:46:16.475Z,11.65
2022-12-05T06:48:45.045Z,11.50
2022-12-05T06:51:15.279Z,13.70
2022-12-05T06:53:43.886Z,13.23
2022-12-05T06:56:14.885Z,14.02
2022-12-05T06:58:44.876Z,11.88
2022-12-05T07:01:44.182Z,11.93
2022-12-05T07:04:20.882Z,13.98
2022-12-05T07:06:51.507Z,12.52
2022-12-05T07:09:22.229Z,13.38
2022-12-05T07:11:57.058Z,13.38
2022-12-05T07:14:46.887Z,15.25
2022-12-05T07:20:22.845Z,19.38
2022-12-05T07:23:15.689Z,26.10
2022-12-05T07:25:47.357Z,19.55
2022-12-05T07:28:20.530Z,19.35
2022-12-05T07:30:50.536Z,15.10
2022-12-05T07:33:19.785Z,12.23
2022-12-05T07:35:51.400Z,13.90
2022-12-05T07:38:23.109Z,13.52
2022-12-05T07:40:54.463Z,12.00
2022-12-05T07:43:22.876Z,15.38
2022-12-05T07:45:50.960Z,12.32
2022-12-05T07:48:24.200Z,11.07
2022-12-05T07:50:53.516Z,11.60
2022-12-05T07:53:22.849Z,10.90
2022-12-05T07:55:54.753Z,11.40
2022-12-05T07:58:30.394Z,13.82
2022-12-05T08:01:07.404Z,11.15
2022-12-05T08:03:38.605Z,10.77
2022-12-05T08:06:12.520Z,13.05
2022-12-05T08:08:41.275Z,13.10
2022-12-05T08:11:15.398Z,13.20
2022-12-05T08:16:14.181Z,14.82
2022-12-05T08:18:42.589Z,17.35
2022-12-05T08:21:13.196Z,11.45
2022-12-05T08:23:42.199Z,16.30
2022-12-05T08:26:17.443Z,9.35
2022-12-05T08:28:45.769Z,14.60
2022-12-05T08:31:16.766Z,11.75
2022-12-05T08:33:48.681Z,11.55
2022-12-05T08:36:21.548Z,11.05
2022-12-05T08:38:50.952Z,11.00
2022-12-05T08:41:22.521Z,12.63
2022-12-05T08:43:52.327Z,12.13
2022-12-05T08:46:22.844Z,10.30
2022-12-05T08:48:53.037Z,11.38
2022-12-05T08:51:21.915Z,11.95
2022-12-05T08:53:54.429Z,9.48
2022-12-05T08:56:27.221Z,8.52
2022-12-05T08:59:04.779Z,8.18
2022-12-05T09:01:39.595Z,9.10
2022-12-05T09:04:10.283Z,6.45
2022-12-05T09:06:41.520Z,8.50
2022-12-05T09:09:12.353Z,7.22
2022-12-05T09:11:52.012Z,7.85
2022-12-05T09:14:22.959Z,13.63
2022-12-05T09:16:51.501Z,8.57
2022-12-05T09:19:21.773Z,9.52
2022-12-05T09:21:49.721Z,9.68
2022-12-05T09:24:17.607Z,10.98
2022-12-05T09:26:51.648Z,9.55
2022-12-05T09:29:20.819Z,12.27
2022-12-05T09:31:51.808Z,13.90
2022-12-05T09:34:20.890Z,13.43
2022-12-05T09:37:05.539Z,13.13
2022-12-05T09:39:45.431Z,15.40
2022-12-05T09:42:35.324Z,14.43
2022-12-05T09:45:11.726Z,14.32
2022-12-05T09:48:00.749Z,14.82
2022-12-05T09:50:36.063Z,15.95
2022-12-05T09:53:06.956Z,13.90
2022-12-05T09:56:09.176Z,17.73
2022-12-05T09:59:08.221Z,14.80
2022-12-05T10:02:01.632Z,12.27
2022-12-05T10:04:47.740Z,12.55
2022-12-05T10:07:22.676Z,15.98
2022-12-05T10:10:49.960Z,10.68
2022-12-05T10:14:03.007Z,15.77
2022-12-05T10:16:51.770Z,13.57
2022-12-05T10:19:36.912Z,12.13
2022-12-05T10:22:49.328Z,11.32
2022-12-05T10:25:29.775Z,10.70
2022-12-05T10:28:19.532Z,11.40
2022-12-05T10:30:59.661Z,9.60
2022-12-05T10:34:21.077Z,10.82
2022-12-05T10:37:09.525Z,11.70
2022-12-05T10:39:51.546Z,15.63
2022-12-05T10:42:38.415Z,11.88
2022-12-05T10:45:22.382Z,15.73
2022-12-05T10:48:02.690Z,12.20
2022-12-05T10:51:00.142Z,11.52
2022-12-05T10:53:41.942Z,11.70
2022-12-05T10:56:53.908Z,11.25
2022-12-05T10:59:26.088Z,14.80
2022-12-05T11:02:01.098Z,12.90
2022-12-05T11:04:43.550Z,13.23
2022-12-05T11:07:31.921Z,12.98
2022-12-05T11:10:26.566Z,10.98
2022-12-05T11:12:58.088Z,12.45
2022-12-05T11:15:29.557Z,11.35
2022-12-05T11:18:17.494Z,9.02
2022-12-05T11:20:45.525Z,11.00
2022-12-05T11:23:30.824Z,9.30
2022-12-05T11:25:59.429Z,11.07
2022-12-05T11:28:36.958Z,7.82
2022-12-05T11:31:25.890Z,9.77
2022-12-05T11:34:20.337Z,9.02
2022-12-05T11:36:56.954Z,8.73
2022-12-05T11:39:25.524Z,11.43
2022-12-05T11:42:16.613Z,10.45
2022-12-05T11:44:45.304Z,8.10
2022-12-05T11:47:25.294Z,10.70
2022-12-05T11:50:16.015Z,11.30
2022-12-05T11:52:58.043Z,11.77
2022-12-05T11:55:31.151Z,10.32
2022-12-05T11:58:18.617Z,9.63
2022-12-05T12:01:37.269Z,8.53
2022-12-05T12:04:18.388Z,8.52
2022-12-05T12:07:17.660Z,9.18
2022-12-05T12:09:51.331Z,8.35
2022-12-05T12:12:53.076Z,7.65
2022-12-05T12:15:55.904Z,5.95
2022-12-05T12:18:38.665Z,4.53
2022-12-05T12:21:38.527Z,4.65
2022-12-05T12:24:06.690Z,6.75
2022-12-05T12:26:49.832Z,4.03
2022-12-05T12:29:55.613Z,4.13
2022-12-05T12:32:27.450Z,4.15
2022-12-05T12:35:34.692Z,3.53
2022-12-05T12:38:35.131Z,5.00
2022-12-05T12:41:19.438Z,2.85
2022-12-05T12:44:24.273Z,3.05
2022-12-05T12:47:14.226Z,1.63
2022-12-05T12:50:05.313Z,1.50
2022-12-05T12:53:27.872Z,1.60
2022-12-05T12:56:08.620Z,1.60
2022-12-05T12:59:05.905Z,3.05
2022-12-05T13:01:39.713Z,2.58
2022-12-05T13:04:19.888Z,1.45
2022-12-05T13:06:56.268Z,4.10
2022-12-05T13:09:30.250Z,2.72
2022-12-05T13:12:05.214Z,3.60
2022-12-05T13:14:36.786Z,3.10
2022-12-05T13:17:06.830Z,2.65
2022-12-05T13:19:55.024Z,2.47
2022-12-05T13:22:25.819Z,3.17
2022-12-05T13:24:55.628Z,3.17
2022-12-05T13:27:28.552Z,2.05
2022-12-05T13:30:02.504Z,2.83
2022-12-05T13:32:43.010Z,2.97
2022-12-05T13:35:48.022Z,6.45
2022-12-05T13:38:48.806Z,4.78
2022-12-05T13:41:35.860Z,7.32
2022-12-05T13:44:12.650Z,16.90
2022-12-05T13:46:43.248Z,8.52
2022-12-05T13:49:36.923Z,10.70
2022-12-05T13:52:09.110Z,7.18
2022-12-05T13:54:44.989Z,3.90
2022-12-05T13:57:40.880Z,4.57
2022-12-05T14:00:31.575Z,5.13
2022-12-05T14:03:04.808Z,4.40
2022-12-05T14:05:38.235Z,3.93
2022-12-05T14:08:31.689Z,6.97
2022-12-05T14:10:59.614Z,4.65
2022-12-05T14:13:27.525Z,4.45
2022-12-05T14:16:15.632Z,6.57
2022-12-05T14:19:11.340Z,4.53
2022-12-05T14:21:41.930Z,5.65
2022-12-05T14:24:27.848Z,4.75
2022-12-05T14:27:15.261Z,5.65
2022-12-05T14:30:32.807Z,6.20
2022-12-05T14:33:03.184Z,4.78
2022-12-05T14:35:51.590Z,6.03
2022-12-05T14:38:33.682Z,5.22
2022-12-05T14:41:32.491Z,4.60
2022-12-05T14:44:08.111Z,4.22
2022-12-05T14:46:36.756Z,4.75
2022-12-05T14:49:53.020Z,5.25
2022-12-05T14:52:24.465Z,4.60
2022-12-05T14:55:02.387Z,5.35
2022-12-05T14:57:33.158Z,6.00
2022-12-05T15:00:06.832Z,4.25
2022-12-05T15:02:40.612Z,8.95
2022-12-05T15:05:32.202Z,4.60
2022-12-05T15:08:03.348Z,6.65
2022-12-05T15:10:39.263Z,9.68
2022-12-05T15:13:28.529Z,6.85
2022-12-05T15:16:08.238Z,5.97
2022-12-05T15:18:42.688Z,6.03
2022-12-05T15:21:26.863Z,7.03
2022-12-05T15:24:11.504Z,8.68
2022-12-05T15:26:48.978Z,7.32
2022-12-05T15:29:27.029Z,5.32
2022-12-05T15:31:57.722Z,7.50
2022-12-05T15:34:59.572Z,6.43
2022-12-05T15:37:27.600Z,8.15
2022-12-05T15:40:01.323Z,7.55
2022-12-05T15:42:31.819Z,5.75
2022-12-05T15:45:14.979Z,6.90
2022-12-05T15:47:45.274Z,6.97
2022-12-05T15:50:17.545Z,6.00
2022-12-05T15:53:10.478Z,7.35
2022-12-05T15:55:50.974Z,7.32
2022-12-05T15:58:29.960Z,7.57
2022-12-05T16:01:00.410Z,14.77
2022-12-05T16:03:49.122Z,9.05
2022-12-05T16:06:26.165Z,9.30
2022-12-05T16:08:55.232Z,8.90
2022-12-05T16:11:23.695Z,9.93
2022-12-05T16:13:59.022Z,8.48
2022-12-05T16:16:32.576Z,7.60
2022-12-05T16:19:07.246Z,6.20
2022-12-05T16:21:39.466Z,9.82
2022-12-05T16:24:15.099Z,5.97
2022-12-05T16:26:43.629Z,5.55
2022-12-05T16:29:29.852Z,5.80
2022-12-05T16:32:00.712Z,6.72
2022-12-05T16:34:32.218Z,6.78
2022-12-05T16:37:00.554Z,7.18
2022-12-05T16:39:29.087Z,6.80
2022-12-05T16:41:57.362Z,6.43
2022-12-05T16:44:31.958Z,9.23
2022-12-05T16:47:00.252Z,7.78
2022-12-05T16:49:31.304Z,8.85
2022-12-05T16:52:03.727Z,6.97
2022-12-05T16:54:33.021Z,8.13
2022-12-05T16:57:01.974Z,8.50
2022-12-05T16:59:34.027Z,10.48
2022-12-05T17:02:05.267Z,10.35
2022-12-05T17:04:33.691Z,10.27
2022-12-05T17:07:01.795Z,8.45
2022-12-05T17:09:30.045Z,10.82
2022-12-05T17:12:04.432Z,9.57
2022-12-05T17:14:32.406Z,10.48
2022-12-05T17:17:03.034Z,8.77
2022-12-05T17:19:31.109Z,8.65
2022-12-05T17:22:03.890Z,10.50
2022-12-05T17:24:32.668Z,10.95
2022-12-05T17:27:00.761Z,9.18
2022-12-05T17:29:35.273Z,9.82
2022-12-05T17:32:04.707Z,8.40
2022-12-05T17:34:33.705Z,8.50
2022-12-05T17:37:02.757Z,10.20
2022-12-05T17:39:31.101Z,9.75
2022-12-05T17:41:59.072Z,12.18
2022-12-05T17:44:27.469Z,13.23
2022-12-05T17:46:55.603Z,8.98
2022-12-05T17:49:23.780Z,11.27
2022-12-05T17:54:42.002Z,10.38
2022-12-05T17:57:09.850Z,11.80
2022-12-05T17:59:38.632Z,14.20
2022-12-05T18:02:07.135Z,9.65
2022-12-05T18:04:35.420Z,11.18
2022-12-05T18:07:03.500Z,8.75
2022-12-05T18:09:31.439Z,13.35
2022-12-05T18:11:59.307Z,11.52
2022-12-05T18:14:28.585Z,9.40
2022-12-05T18:16:56.812Z,9.07
2022-12-05T18:19:24.725Z,10.52
2022-12-05T18:21:52.751Z,10.25
2022-12-05T18:24:20.622Z,8.30
2022-12-05T18:26:49.088Z,8.57
2022-12-05T18:29:17.224Z,11.63
2022-12-05T18:31:45.228Z,12.60
2022-12-05T18:34:27.840Z,10.90
2022-12-05T18:37:03.127Z,11.30
2022-12-05T18:39:39.583Z,8.60
2022-12-05T18:45:33.897Z,10.07
2022-12-05T18:48:23.008Z,11.98
2022-12-05T18:50:49.658Z,10.52
2022-12-05T18:53:17.679Z,10.90
2022-12-05T18:56:05.412Z,13.77
2022-12-05T18:58:34.117Z,11.18
2022-12-05T19:01:21.234Z,12.90
2022-12-05T19:03:52.286Z,12.20
2022-12-05T19:06:25.464Z,12.32
2022-12-05T19:08:55.842Z,16.17
2022-12-05T19:11:29.652Z,18.25
2022-12-05T19:14:00.602Z,14.27
2022-12-05T19:16:30.456Z,14.85
2022-12-05T19:19:00.980Z,16.35
2022-12-05T19:21:30.433Z,14.23
2022-12-05T19:23:58.638Z,15.50
2022-12-05T19:26:28.174Z,18.13
2022-12-05T19:28:57.270Z,14.50
2022-12-05T19:31:27.160Z,17.10
2022-12-05T19:33:58.640Z,17.63
2022-12-05T19:36:29.755Z,21.85
2022-12-05T19:38:58.774Z,20.75
2022-12-05T19:41:30.243Z,19.40
2022-12-05T19:44:02.184Z,20.67
2022-12-05T19:46:31.189Z,21.63
2022-12-05T19:49:06.396Z,26.10
2022-12-05T19:51:35.173Z,23.25
2022-12-05T19:54:04.420Z,24.48
2022-12-05T19:56:33.891Z,27.45
2022-12-05T19:59:01.992Z,24.35
2022-12-05T20:01:36.977Z,25.33
2022-12-05T20:04:07.827Z,27.85
2022-12-05T20:06:42.045Z,26.45
2022-12-05T20:09:11.924Z,30.15
2022-12-05T20:11:43.340Z,30.00
2022-12-05T20:14:13.649Z,27.90
2022-12-05T20:16:41.843Z,26.17
2022-12-05T20:19:10.380Z,31.83
2022-12-05T20:21:41.777Z,32.17
2022-12-05T20:24:11.053Z,29.35
2022-12-05T20:26:42.318Z,22.20
2022-12-05T20:29:10.707Z,27.83
2022-12-05T20:31:41.481Z,29.98
2022-12-05T20:34:11.955Z,27.55
2022-12-05T20:36:40.265Z,26.38
2022-12-05T20:39:13.233Z,28.50
2022-12-05T20:41:41.133Z,28.85
2022-12-05T20:44:14.728Z,33.83
2022-12-05T20:46:52.712Z,29.45
2022-12-05T20:49:22.480Z,28.90
2022-12-05T20:51:51.126Z,26.48
2022-12-05T20:54:19.625Z,32.63
2022-12-05T20:56:49.274Z,28.83
2022-12-05T20:59:17.190Z,30.00
2022-12-05T21:01:47.240Z,31.60
2022-12-05T21:04:15.610Z,33.75
2022-12-05T21:06:45.996Z,31.30
2022-12-05T21:09:26.848Z,31.67
2022-12-05T21:11:55.659Z,29.58
2022-12-05T21:14:24.484Z,31.45
2022-12-05T21:16:53.360Z,29.73
2022-12-05T21:19:22.142Z,31.00
2022-12-05T21:21:50.818Z,24.95
2022-12-05T21:24:18.685Z,32.45
2022-12-05T21:26:49.524Z,28.35
2022-12-05T21:29:18.025Z,27.20
2022-12-05T21:31:46.164Z,28.15
2022-12-05T21:34:17.402Z,26.58
2022-12-05T21:36:45.726Z,25.73
2022-12-05T21:39:14.846Z,27.10
2022-12-05T21:41:42.729Z,28.45
2022-12-05T21:44:10.698Z,28.60
2022-12-05T21:46:38.651Z,30.83
2022-12-05T21:49:07.174Z,27.83
2022-12-05T21:51:35.149Z,28.70
2022-12-05T21:54:03.096Z,29.02
2022-12-05T21:56:31.026Z,28.30
2022-12-05T21:58:58.876Z,28.48
2022-12-05T22:01:28.684Z,30.00
2022-12-05T22:04:01.385Z,31.23
2022-12-05T22:06:34.083Z,33.88
2022-12-05T22:09:02.223Z,29.05
2022-12-05T22:11:30.279Z,32.15
2022-12-05T22:13:58.187Z,28.95
2022-12-05T22:16:32.788Z,30.23
2022-12-05T22:19:02.365Z,27.48
2022-12-05T22:21:34.055Z,27.77
2022-12-05T22:24:02.309Z,27.70
2022-12-05T22:26:30.211Z,28.77
2022-12-05T22:28:58.204Z,27.15
2022-12-05T22:31:26.520Z,28.60
2022-12-05T22:33:54.455Z,28.67
2022-12-05T22:36:24.439Z,30.33
2022-12-05T22:38:52.443Z,29.50
2022-12-05T22:41:23.790Z,31.58
2022-12-05T22:43:58.130Z,28.67
2022-12-05T22:46:28.081Z,30.38
2022-12-05T22:48:56.650Z,29.50
2022-12-05T22:51:26.488Z,31.50
2022-12-05T22:53:54.640Z,28.75
2022-12-05T22:56:25.549Z,29.23
2022-12-05T22:58:55.622Z,30.13
2022-12-05T23:01:29.706Z,30.13
2022-12-05T23:04:02.184Z,30.33
2022-12-05T23:06:33.084Z,29.77
2022-12-05T23:09:02.875Z,30.30
2022-12-05T23:11:33.220Z,31.05
2022-12-05T23:14:02.736Z,32.08
2022-12-05T23:16:35.703Z,32.65
2022-12-05T23:19:06.411Z,32.78
2022-12-05T23:21:40.832Z,30.50
2022-12-05T23:24:12.525Z,33.17
2022-12-05T23:26:46.547Z,33.23
2022-12-05T23:29:19.244Z,31.80
2022-12-05T23:31:47.920Z,34.25
2022-12-05T23:34:20.633Z,32.55
2022-12-05T23:36:49.425Z,30.83
2022-12-05T23:39:18.537Z,32.88
2022-12-05T23:41:49.114Z,34.50
2022-12-05T23:44:17.790Z,35.90
2022-12-05T23:46:46.619Z,32.08
2022-12-05T23:49:15.329Z,33.55
2022-12-05T23:51:45.192Z,34.13
2022-12-05T23:54:16.918Z,32.13
2022-12-05T23:56:47.702Z,30.38
2022-12-05T23:59:16.466Z,32.63
